Time;durP1;ratioP1;P1;durP2;ratioP2;P2;SDS_P1;SDS_P2;PMS_P1;PMS_P2;Temp;Humidity;BMP_temperature;BMP_pressure;BME280_temperature;BME280_humidity;BME280_pressure;Samples;Min_cycle;Max_cycle;Signal;HPM_P1;HPM_P2
2021/10/10 00:00:47;;;;;;;14.67;12.43;;;12.10;97.90;;;;;;5054993;28;20617;-66
2021/10/10 00:03:13;;;;;;;14.60;13.10;;;12.10;98.00;;;;;;5054245;28;20193;-66
2021/10/10 00:05:39;;;;;;;15.57;13.77;;;12.00;97.80;;;;;;5054835;28;20465;-66
2021/10/10 00:08:05;;;;;;;14.33;12.93;;;12.10;98.70;;;;;;5035969;28;20512;-73
2021/10/10 00:10:31;;;;;;;15.23;13.63;;;12.10;98.60;;;;;;5054160;28;20174;-66
2021/10/10 00:12:58;;;;;;;14.47;13.17;;;12.00;98.50;;;;;;5054857;28;20257;-66
2021/10/10 00:15:24;;;;;;;15.77;14.17;;;12.00;98.00;;;;;;5053954;28;20433;-66
2021/10/10 00:17:50;;;;;;;14.83;13.43;;;12.00;97.90;;;;;;5054942;28;20483;-66
2021/10/10 00:20:16;;;;;;;15.33;13.83;;;12.00;97.60;;;;;;5053798;28;20527;-66
2021/10/10 00:22:42;;;;;;;14.27;12.97;;;12.00;97.40;;;;;;5054361;28;20689;-66
2021/10/10 00:25:08;;;;;;;17.40;14.67;;;12.00;97.10;;;;;;5053582;28;20464;-67
2021/10/10 00:27:35;;;;;;;15.97;14.40;;;11.90;97.30;;;;;;5054412;28;20189;-66
2021/10/10 00:30:02;;;;;;;15.17;13.77;;;11.90;97.20;;;;;;5054435;28;20431;-66
2021/10/10 00:32:28;;;;;;;15.53;14.03;;;11.90;96.90;;;;;;5053873;28;20410;-66
2021/10/10 00:34:54;;;;;;;16.60;14.90;;;11.90;97.00;;;;;;5054153;28;20470;-66
2021/10/10 00:37:20;;;;;;;14.40;12.90;;;11.90;97.20;;;;;;5032471;28;20269;-66
2021/10/10 00:39:45;;;;;;;14.67;13.30;;;11.90;97.10;;;;;;5034445;28;20186;-66
2021/10/10 00:42:11;;;;;;;15.40;14.00;;;11.80;97.60;;;;;;5033390;28;20239;-67
2021/10/10 00:44:37;;;;;;;14.57;13.30;;;11.80;98.10;;;;;;5034280;28;20187;-66
2021/10/10 00:47:03;;;;;;;16.67;14.93;;;11.80;97.60;;;;;;5033934;28;20181;-66
2021/10/10 00:49:28;;;;;;;15.23;13.73;;;11.80;97.40;;;;;;5033491;28;20231;-66
2021/10/10 00:51:57;;;;;;;14.70;13.17;;;11.80;97.40;;;;;;5051462;28;20180;-66
2021/10/10 00:54:23;;;;;;;14.57;13.17;;;11.80;97.30;;;;;;5053216;28;20196;-66
2021/10/10 00:56:52;;;;;;;17.27;14.30;;;11.70;97.40;;;;;;5053965;28;20771;-66
2021/10/10 00:59:22;;;;;;;15.43;14.03;;;11.70;97.60;;;;;;5053397;28;20522;-66
2021/10/10 01:01:51;;;;;;;15.10;13.60;;;11.70;97.90;;;;;;5053886;28;20400;-66
2021/10/10 01:04:18;;;;;;;14.60;13.10;;;11.70;97.70;;;;;;5052993;28;20415;-66
2021/10/10 01:06:44;;;;;;;14.53;13.13;;;11.70;97.10;;;;;;5053527;28;20531;-66
2021/10/10 01:09:14;;;;;;;14.40;13.10;;;11.70;97.20;;;;;;5035102;28;20427;-67
2021/10/10 01:11:41;;;;;;;14.77;13.27;;;11.60;97.10;;;;;;5053869;28;20224;-66
2021/10/10 01:14:07;;;;;;;15.17;13.63;;;11.60;97.10;;;;;;5052874;28;20428;-73
2021/10/10 01:16:33;;;;;;;14.30;12.97;;;11.60;98.10;;;;;;5053270;28;20420;-66
2021/10/10 01:18:59;;;;;;;14.50;13.10;;;11.60;97.40;;;;;;5053515;28;20179;-66
2021/10/10 01:21:25;;;;;;;14.07;12.77;;;11.60;97.80;;;;;;5033466;28;20425;-66
2021/10/10 01:23:51;;;;;;;15.03;13.63;;;11.50;98.00;;;;;;5052927;28;20424;-66
2021/10/10 01:26:21;;;;;;;14.57;13.17;;;11.40;97.80;;;;;;5052593;28;20456;-66
2021/10/10 01:28:48;;;;;;;14.73;12.93;;;11.40;97.20;;;;;;5053097;28;20415;-66
2021/10/10 01:31:14;;;;;;;12.73;11.73;;;11.30;96.90;;;;;;5034760;28;20954;-66
2021/10/10 01:33:43;;;;;;;14.67;13.13;;;11.30;97.00;;;;;;5035066;28;20484;-68
2021/10/10 01:36:13;;;;;;;14.50;13.10;;;11.30;96.70;;;;;;5052564;28;20954;-73
2021/10/10 01:38:40;;;;;;;15.07;13.57;;;11.30;96.70;;;;;;5053257;28;20407;-66
2021/10/10 01:41:07;;;;;;;15.23;13.73;;;11.30;96.80;;;;;;5053122;28;20412;-66
2021/10/10 01:43:33;;;;;;;15.40;13.90;;;11.30;97.10;;;;;;5052226;28;20419;-66
2021/10/10 01:45:59;;;;;;;14.57;13.07;;;11.30;97.30;;;;;;5052689;28;20464;-66
2021/10/10 01:48:24;;;;;;;14.40;13.00;;;11.30;97.00;;;;;;5034512;28;20506;-66
2021/10/10 01:50:51;;;;;;;13.17;11.93;;;11.30;96.60;;;;;;5052714;28;20181;-66
2021/10/10 01:53:16;;;;;;;12.27;11.17;;;11.20;96.70;;;;;;5052204;28;20186;-66
2021/10/10 01:55:43;;;;;;;12.50;11.30;;;11.30;97.00;;;;;;5052874;28;20423;-66
2021/10/10 01:58:09;;;;;;;12.80;11.50;;;11.20;96.60;;;;;;5052564;28;20231;-73
2021/10/10 02:00:35;;;;;;;11.37;10.37;;;11.20;96.50;;;;;;5052153;28;20486;-66
2021/10/10 02:03:01;;;;;;;14.00;11.30;;;11.20;96.40;;;;;;5052782;28;20524;-66
2021/10/10 02:05:27;;;;;;;12.43;11.13;;;11.20;96.10;;;;;;5051854;28;20462;-66
2021/10/10 02:07:53;;;;;;;11.90;10.60;;;11.10;95.80;;;;;;5052674;28;20544;-66
2021/10/10 02:10:19;;;;;;;13.73;11.80;;;11.10;95.90;;;;;;5051567;28;20169;-66
2021/10/10 02:12:45;;;;;;;11.70;10.50;;;11.10;95.80;;;;;;5052526;28;20499;-66
2021/10/10 02:15:11;;;;;;;12.43;11.20;;;11.10;95.90;;;;;;5051930;28;20949;-74
2021/10/10 02:17:37;;;;;;;12.00;11.00;;;11.10;95.70;;;;;;5052580;28;20209;-66
2021/10/10 02:20:07;;;;;;;13.60;11.70;;;11.00;95.60;;;;;;5034151;28;20463;-66
2021/10/10 02:22:34;;;;;;;12.90;11.60;;;11.00;95.70;;;;;;5051629;28;20204;-66
2021/10/10 02:25:00;;;;;;;12.10;10.90;;;10.90;96.00;;;;;;5052499;28;20463;-66
2021/10/10 02:27:26;;;;;;;12.83;11.60;;;10.90;96.20;;;;;;5051624;28;20407;-66
2021/10/10 02:29:51;;;;;;;13.73;12.27;;;10.90;96.40;;;;;;5052300;28;20417;-66
2021/10/10 02:32:18;;;;;;;13.10;11.80;;;10.90;96.50;;;;;;5050976;28;20176;-66
2021/10/10 02:34:44;;;;;;;12.87;11.07;;;10.90;96.60;;;;;;5051922;28;20276;-66
2021/10/10 02:37:09;;;;;;;12.70;11.40;;;10.90;96.60;;;;;;5052044;28;20418;-69
2021/10/10 02:39:35;;;;;;;12.23;11.00;;;10.80;96.70;;;;;;5031654;28;20181;-66
2021/10/10 02:42:02;;;;;;;12.10;10.90;;;10.80;96.40;;;;;;5032338;28;20268;-66
2021/10/10 02:44:28;;;;;;;12.87;11.57;;;10.90;96.30;;;;;;5031340;28;20407;-66
2021/10/10 02:46:54;;;;;;;11.67;10.50;;;10.90;96.60;;;;;;5045241;28;20919;-66
2021/10/10 02:49:20;;;;;;;12.80;11.60;;;10.90;96.80;;;;;;5051343;28;20411;-66
2021/10/10 02:51:45;;;;;;;12.80;11.50;;;10.90;96.80;;;;;;5034014;28;20180;-66
2021/10/10 02:54:11;;;;;;;13.03;11.80;;;10.90;96.80;;;;;;5051905;28;20645;-74
2021/10/10 02:56:37;;;;;;;12.33;11.13;;;10.90;97.40;;;;;;5051220;28;20204;-69
2021/10/10 02:59:02;;;;;;;12.80;11.60;;;10.90;97.00;;;;;;5052244;28;20184;-66
2021/10/10 03:01:28;;;;;;;11.93;10.83;;;10.90;96.40;;;;;;5051539;28;20180;-66
2021/10/10 03:03:54;;;;;;;12.20;11.10;;;10.90;95.90;;;;;;5051646;28;20176;-66
2021/10/10 03:06:20;;;;;;;13.37;11.97;;;10.80;95.80;;;;;;5051183;28;20235;-66
2021/10/10 03:08:45;;;;;;;12.60;11.50;;;10.80;95.70;;;;;;5051692;28;20189;-66
2021/10/10 03:11:11;;;;;;;13.43;12.13;;;10.70;95.50;;;;;;5052005;28;20409;-66
2021/10/10 03:13:37;;;;;;;11.93;10.90;;;10.70;95.60;;;;;;5051092;28;20178;-66
2021/10/10 03:16:03;;;;;;;12.00;10.90;;;10.70;95.70;;;;;;5051743;28;20213;-66
2021/10/10 03:18:28;;;;;;;14.00;12.20;;;10.70;95.70;;;;;;5051107;28;20176;-66
2021/10/10 03:20:54;;;;;;;12.20;11.00;;;10.70;96.00;;;;;;5051600;28;20478;-66
2021/10/10 03:23:20;;;;;;;12.30;11.20;;;10.70;96.30;;;;;;5050755;28;20586;-66
2021/10/10 03:25:46;;;;;;;11.67;10.63;;;10.70;96.30;;;;;;5051366;28;20293;-66
2021/10/10 03:28:11;;;;;;;12.33;11.13;;;10.60;96.10;;;;;;5033783;28;20228;-66
2021/10/10 03:30:37;;;;;;;13.03;11.87;;;10.70;96.20;;;;;;5050561;28;20515;-65
2021/10/10 03:33:03;;;;;;;12.47;11.17;;;10.70;96.20;;;;;;5053537;28;20185;-66
2021/10/10 03:35:29;;;;;;;12.77;11.60;;;10.70;96.30;;;;;;5054786;28;20240;-66
2021/10/10 03:37:54;;;;;;;12.40;11.20;;;10.70;96.00;;;;;;5054939;28;20636;-66
2021/10/10 03:40:20;;;;;;;16.40;12.43;;;10.70;95.70;;;;;;5054294;28;20182;-66
2021/10/10 03:42:46;;;;;;;12.50;11.40;;;10.70;95.30;;;;;;5055387;28;20256;-66
2021/10/10 03:45:11;;;;;;;12.30;11.10;;;10.70;95.50;;;;;;5055308;28;20612;-66
2021/10/10 03:47:37;;;;;;;12.47;11.30;;;10.70;95.70;;;;;;5054273;28;20232;-66
2021/10/10 03:50:04;;;;;;;12.03;10.83;;;10.60;95.90;;;;;;5054967;28;20658;-66
2021/10/10 03:52:30;;;;;;;13.50;11.00;;;10.60;95.70;;;;;;5053880;28;20433;-66
2021/10/10 03:57:40;;;;;;;13.23;11.93;;;10.60;95.40;;;;;;5054650;28;20390;-66
2021/10/10 04:00:10;;;;;;;13.27;11.97;;;10.60;95.90;;;;;;5054999;28;20425;-66
2021/10/10 04:02:36;;;;;;;12.00;10.90;;;10.60;96.50;;;;;;5054450;28;20178;-66
2021/10/10 04:05:04;;;;;;;12.17;11.07;;;10.60;96.30;;;;;;5054879;28;20474;-66
2021/10/10 04:07:30;;;;;;;13.67;12.27;;;10.50;95.80;;;;;;5053889;28;20210;-66
2021/10/10 04:09:56;;;;;;;11.30;10.30;;;10.50;95.40;;;;;;5054886;28;20445;-66
2021/10/10 04:12:21;;;;;;;12.63;11.33;;;10.50;95.40;;;;;;5053799;28;20166;-66
2021/10/10 04:14:47;;;;;;;12.87;11.50;;;10.50;95.40;;;;;;5054836;28;20579;-66
2021/10/10 04:17:13;;;;;;;12.30;11.20;;;10.40;95.50;;;;;;5054838;28;20254;-66
2021/10/10 04:19:38;;;;;;;12.80;11.60;;;10.40;95.60;;;;;;5054217;28;20170;-66
2021/10/10 04:22:05;;;;;;;13.53;12.23;;;10.40;95.80;;;;;;5036865;28;20174;-66
2021/10/10 04:24:31;;;;;;;12.47;11.23;;;10.40;96.00;;;;;;5053432;28;20263;-66
2021/10/10 04:26:57;;;;;;;12.43;11.30;;;10.40;96.10;;;;;;5054221;28;20508;-67
2021/10/10 04:29:22;;;;;;;11.27;10.27;;;10.40;96.00;;;;;;5053698;28;20449;-66
2021/10/10 04:31:48;;;;;;;11.80;10.60;;;10.40;95.80;;;;;;5054311;28;20453;-66
2021/10/10 04:34:14;;;;;;;11.33;10.23;;;10.40;95.50;;;;;;5053997;28;20215;-66
2021/10/10 04:36:40;;;;;;;11.57;10.40;;;10.40;95.10;;;;;;5035842;28;20790;-66
2021/10/10 04:39:06;;;;;;;10.50;9.63;;;10.30;95.00;;;;;;5053787;28;20437;-65
2021/10/10 04:41:32;;;;;;;10.63;9.60;;;10.40;95.50;;;;;;5053457;28;20232;-66
2021/10/10 04:43:57;;;;;;;11.70;10.50;;;10.40;95.70;;;;;;5053864;28;20522;-66
2021/10/10 04:46:23;;;;;;;12.33;9.97;;;10.30;95.80;;;;;;5053285;28;20216;-66
2021/10/10 04:48:49;;;;;;;10.60;9.60;;;10.40;95.80;;;;;;5054116;28;20270;-66
2021/10/10 04:51:14;;;;;;;10.83;9.73;;;10.50;95.70;;;;;;5054138;28;20178;-66
2021/10/10 04:53:40;;;;;;;10.70;9.70;;;10.40;95.30;;;;;;5053038;28;20180;-66
2021/10/10 04:56:06;;;;;;;11.67;9.57;;;10.40;95.20;;;;;;5054326;28;20186;-66
2021/10/10 04:58:31;;;;;;;11.23;10.23;;;10.40;95.50;;;;;;5053166;28;20182;-66
2021/10/10 05:00:58;;;;;;;11.10;10.00;;;10.30;95.70;;;;;;5054255;28;20170;-66
2021/10/10 05:03:24;;;;;;;10.77;9.70;;;10.40;95.40;;;;;;5052841;28;20530;-67
2021/10/10 05:05:51;;;;;;;11.37;10.20;;;10.30;95.10;;;;;;5053960;28;20552;-66
2021/10/10 05:08:17;;;;;;;9.83;9.03;;;10.30;95.10;;;;;;5053307;28;20494;-66
2021/10/10 05:10:43;;;;;;;10.97;9.87;;;10.30;95.60;;;;;;5034933;28;20417;-67
2021/10/10 05:13:08;;;;;;;10.67;9.60;;;10.40;96.90;;;;;;5053636;28;20506;-67
2021/10/10 05:15:34;;;;;;;10.93;9.90;;;10.30;95.90;;;;;;5052820;28;20507;-67
2021/10/10 05:18:00;;;;;;;10.40;9.50;;;10.30;95.40;;;;;;5053381;28;20173;-67
2021/10/10 05:20:26;;;;;;;10.73;9.57;;;10.30;95.70;;;;;;5052804;28;20424;-67
2021/10/10 05:22:52;;;;;;;12.10;10.90;;;10.30;95.70;;;;;;5053546;28;20417;-67
2021/10/10 05:25:18;;;;;;;11.30;10.20;;;10.20;95.50;;;;;;5053146;28;20257;-67
2021/10/10 05:27:43;;;;;;;11.77;10.77;;;10.20;95.10;;;;;;5052110;28;20235;-67
2021/10/10 05:30:09;;;;;;;11.40;10.30;;;10.20;95.10;;;;;;5053392;28;20526;-67
2021/10/10 05:32:35;;;;;;;10.80;9.80;;;10.20;95.20;;;;;;5052485;28;20191;-67
2021/10/10 05:35:01;;;;;;;10.60;9.50;;;10.20;95.30;;;;;;5052963;28;20465;-67
2021/10/10 05:37:26;;;;;;;10.30;9.33;;;10.20;95.30;;;;;;5052712;28;20262;-68
2021/10/10 05:39:52;;;;;;;11.63;10.43;;;10.20;95.20;;;;;;5053290;28;20172;-67
2021/10/10 05:42:18;;;;;;;11.50;9.57;;;10.10;95.00;;;;;;5053175;28;20174;-67
2021/10/10 05:44:44;;;;;;;10.30;9.30;;;10.20;95.10;;;;;;5052197;28;20174;-67
2021/10/10 05:47:10;;;;;;;12.23;11.00;;;10.10;95.00;;;;;;5052467;28;20179;-67
2021/10/10 05:49:36;;;;;;;12.23;11.00;;;10.10;95.20;;;;;;5052264;28;20420;-67
2021/10/10 05:52:03;;;;;;;11.80;10.60;;;10.10;95.60;;;;;;5034565;28;20416;-67
2021/10/10 05:54:31;;;;;;;11.73;10.63;;;10.20;95.80;;;;;;5051492;28;20423;-67
2021/10/10 05:57:00;;;;;;;11.77;10.67;;;10.10;95.90;;;;;;5050572;28;20770;-69
2021/10/10 05:59:25;;;;;;;12.40;10.60;;;10.10;95.90;;;;;;5034074;28;20499;-68
2021/10/10 06:01:51;;;;;;;11.67;10.60;;;10.10;96.00;;;;;;5039054;28;20912;-67
2021/10/10 06:04:17;;;;;;;11.83;10.73;;;10.20;95.80;;;;;;5037559;28;20182;-68
2021/10/10 06:06:42;;;;;;;11.27;10.07;;;10.20;95.60;;;;;;5045204;28;20219;-68
2021/10/10 06:09:08;;;;;;;11.07;9.97;;;10.20;95.90;;;;;;5047282;28;20640;-68
2021/10/10 06:11:37;;;;;;;12.97;11.70;;;10.20;95.90;;;;;;5042587;28;20213;-68
2021/10/10 06:14:03;;;;;;;11.10;10.10;;;10.20;95.80;;;;;;5033062;28;20173;-67
2021/10/10 06:16:30;;;;;;;12.33;11.13;;;10.20;95.80;;;;;;5044687;28;20450;-69
2021/10/10 06:18:56;;;;;;;10.80;9.80;;;10.20;95.80;;;;;;5041801;28;20405;-67
2021/10/10 06:21:22;;;;;;;11.13;10.00;;;10.20;96.00;;;;;;5042385;28;20424;-67
2021/10/10 06:23:48;;;;;;;11.17;10.10;;;10.30;96.10;;;;;;5051959;28;20456;-67
2021/10/10 06:26:14;;;;;;;13.23;11.77;;;10.30;96.00;;;;;;5051772;28;20484;-67
2021/10/10 06:28:39;;;;;;;11.33;10.17;;;10.30;95.90;;;;;;5027963;28;20632;-67
2021/10/10 06:31:05;;;;;;;12.50;11.00;;;10.40;96.00;;;;;;5039511;28;20428;-70
2021/10/10 06:33:31;;;;;;;12.40;11.20;;;10.40;96.00;;;;;;5031053;28;20220;-67
2021/10/10 06:35:57;;;;;;;12.83;11.20;;;10.50;96.10;;;;;;5043068;28;20189;-68
2021/10/10 06:38:22;;;;;;;11.77;10.77;;;10.50;96.00;;;;;;5049765;28;20220;-67
2021/10/10 06:40:48;;;;;;;13.83;12.20;;;10.50;96.00;;;;;;5034294;28;20699;-67
2021/10/10 06:43:14;;;;;;;14.60;10.70;;;10.50;96.20;;;;;;5041196;28;20172;-68
2021/10/10 06:45:40;;;;;;;15.00;10.70;;;10.60;96.20;;;;;;5050837;28;20239;-68
2021/10/10 06:48:06;;;;;;;12.60;11.30;;;10.60;96.40;;;;;;5048828;28;20919;-68
2021/10/10 06:50:31;;;;;;;11.93;10.73;;;10.70;97.40;;;;;;5050005;28;20428;-68
2021/10/10 06:52:57;;;;;;;11.83;10.73;;;11.20;97.60;;;;;;5044276;28;20181;-68
2021/10/10 06:55:23;;;;;;;11.37;10.43;;;11.70;97.40;;;;;;5045357;28;20662;-68
2021/10/10 06:57:48;;;;;;;12.33;10.70;;;12.10;96.80;;;;;;5051357;28;20412;-69
2021/10/10 07:00:15;;;;;;;11.27;10.17;;;12.60;96.30;;;;;;5052200;28;20217;-68
2021/10/10 07:02:42;;;;;;;11.10;9.90;;;12.90;95.50;;;;;;5051272;28;20173;-68
2021/10/10 07:05:12;;;;;;;12.53;11.17;;;13.30;95.00;;;;;;5050990;28;20479;-69
2021/10/10 07:07:39;;;;;;;13.67;11.43;;;13.60;95.30;;;;;;5053726;28;20425;-69
2021/10/10 07:10:06;;;;;;;12.17;10.97;;;13.90;94.40;;;;;;5037736;28;20462;-70
2021/10/10 07:12:33;;;;;;;13.40;10.60;;;14.10;93.90;;;;;;5048609;28;20451;-69
2021/10/10 07:14:58;;;;;;;13.53;11.60;;;14.30;93.40;;;;;;5055669;28;20446;-69
2021/10/10 07:17:27;;;;;;;12.00;10.80;;;14.50;92.80;;;;;;5055524;28;20551;-69
2021/10/10 07:20:14;;;;;;;12.47;11.17;;;14.70;92.10;;;;;;5055516;28;20942;-68
2021/10/10 07:25:07;;;;;;;226.87;147.23;;;14.90;91.60;;;;;;5055617;28;20466;-69
2021/10/10 07:27:34;;;;;;;24.60;19.03;;;15.00;91.00;;;;;;5048873;28;20174;-69
2021/10/10 07:30:03;;;;;;;11.83;10.57;;;15.10;91.00;;;;;;5042036;28;20410;-69
2021/10/10 07:32:29;;;;;;;12.03;10.83;;;15.20;90.70;;;;;;5037773;28;20944;-75
2021/10/10 07:34:55;;;;;;;11.63;10.50;;;15.20;91.20;;;;;;5055277;28;20468;-68
2021/10/10 07:37:20;;;;;;;12.40;10.90;;;15.30;90.70;;;;;;5036573;28;20754;-69
2021/10/10 07:39:46;;;;;;;12.00;10.90;;;15.40;90.50;;;;;;5054407;28;20448;-69
2021/10/10 07:42:13;;;;;;;12.40;11.30;;;15.40;89.20;;;;;;5055342;28;20176;-71
2021/10/10 07:44:47;;;;;;;12.70;11.57;;;15.40;91.10;;;;;;5035873;28;20273;-68
2021/10/10 07:47:28;;;;;;;13.37;11.97;;;15.50;90.60;;;;;;5017887;28;20763;-68
2021/10/10 07:49:55;;;;;;;11.73;10.60;;;15.60;90.60;;;;;;5035250;28;20407;-69
2021/10/10 07:52:21;;;;;;;13.57;12.33;;;15.60;90.60;;;;;;5043627;28;20419;-68
2021/10/10 07:54:46;;;;;;;13.97;12.67;;;15.70;90.60;;;;;;5040377;28;20474;-68
2021/10/10 07:57:12;;;;;;;12.43;11.40;;;15.80;90.50;;;;;;5035638;28;20183;-69
2021/10/10 07:59:39;;;;;;;13.33;11.80;;;15.90;90.50;;;;;;5043980;28;20193;-69
2021/10/10 08:02:05;;;;;;;12.67;11.47;;;15.90;90.30;;;;;;5045544;28;20180;-69
2021/10/10 08:04:30;;;;;;;13.93;12.60;;;15.90;89.30;;;;;;5042125;28;20419;-69
2021/10/10 08:06:56;;;;;;;13.80;12.53;;;15.80;87.50;;;;;;5045528;28;20473;-68
2021/10/10 08:09:22;;;;;;;13.53;12.20;;;15.90;88.90;;;;;;5043693;28;20463;-74
2021/10/10 08:11:48;;;;;;;606.20;394.43;;;16.00;90.00;;;;;;5053797;28;20253;-69
2021/10/10 08:14:14;;;;;;;159.37;118.00;;;16.00;89.30;;;;;;5053396;28;20434;-69
2021/10/10 08:16:41;;;;;;;48.97;40.10;;;16.10;89.70;;;;;;5015794;28;20975;-69
2021/10/10 08:19:07;;;;;;;24.67;19.47;;;16.20;90.00;;;;;;5033773;28;20173;-69
2021/10/10 08:21:34;;;;;;;15.17;13.67;;;16.20;90.00;;;;;;5033823;28;20432;-74
2021/10/10 08:24:01;;;;;;;13.80;12.50;;;16.30;90.00;;;;;;5017196;28;20934;-68
2021/10/10 08:26:28;;;;;;;13.40;12.07;;;16.40;90.20;;;;;;5000886;28;20476;-68
2021/10/10 08:28:55;;;;;;;14.90;12.70;;;16.40;90.60;;;;;;5033339;28;20499;-69
2021/10/10 08:31:23;;;;;;;14.80;13.33;;;16.50;90.50;;;;;;5021686;28;20420;-69
2021/10/10 08:33:48;;;;;;;13.40;12.20;;;16.50;90.30;;;;;;5048833;28;20474;-69
2021/10/10 08:36:14;;;;;;;14.63;13.17;;;16.60;90.70;;;;;;5049881;28;20444;-67
2021/10/10 08:38:41;;;;;;;13.90;12.43;;;16.70;90.90;;;;;;5051854;28;20190;-68
2021/10/10 08:41:07;;;;;;;14.40;12.90;;;16.70;91.00;;;;;;5034789;28;20233;-68
2021/10/10 08:43:34;;;;;;;16.23;12.87;;;16.80;91.00;;;;;;5044114;28;20437;-69
2021/10/10 08:46:03;;;;;;;13.17;11.87;;;16.80;90.40;;;;;;5054506;28;20456;-68
2021/10/10 08:48:28;;;;;;;13.97;12.70;;;16.90;90.40;;;;;;5054032;28;20424;-68
2021/10/10 08:50:55;;;;;;;13.70;12.40;;;17.00;90.50;;;;;;5053969;28;20874;-68
2021/10/10 08:53:22;;;;;;;13.17;11.90;;;17.00;89.90;;;;;;5054521;28;20177;-68
2021/10/10 08:55:49;;;;;;;13.83;11.93;;;17.00;90.30;;;;;;5054112;28;20481;-69
2021/10/10 08:58:21;;;;;;;13.07;11.83;;;17.10;90.40;;;;;;5047361;28;20427;-67
2021/10/10 09:00:53;;;;;;;13.33;12.03;;;17.20;90.00;;;;;;5044302;28;20822;-66
2021/10/10 09:03:19;;;;;;;13.07;11.67;;;17.20;89.00;;;;;;5051604;28;20899;-67
2021/10/10 09:05:45;;;;;;;13.57;11.50;;;17.10;87.70;;;;;;5051192;28;20470;-66
2021/10/10 09:08:12;;;;;;;13.27;11.87;;;16.90;88.50;;;;;;5053334;28;20475;-68
2021/10/10 09:10:38;;;;;;;13.60;12.23;;;16.80;88.10;;;;;;5053557;28;20420;-66
2021/10/10 09:13:09;;;;;;;13.17;11.87;;;16.80;87.50;;;;;;5052752;28;20499;-67
2021/10/10 09:15:41;;;;;;;13.67;12.40;;;16.80;88.60;;;;;;5043584;28;20424;-68
2021/10/10 09:18:09;;;;;;;13.40;12.20;;;16.80;89.90;;;;;;5053686;28;20440;-65
2021/10/10 09:20:44;;;;;;;12.47;11.27;;;16.90;88.90;;;;;;5053462;28;20818;-65
2021/10/10 09:23:30;;;;;;;31.60;22.30;;;16.80;88.70;;;;;;5052464;28;20420;-67
2021/10/10 09:25:59;;;;;;;56.20;46.47;;;16.80;88.70;;;;;;5052016;28;20478;-65
2021/10/10 09:28:28;;;;;;;17.20;15.27;;;16.80;90.60;;;;;;5047637;28;20427;-67
2021/10/10 09:30:56;;;;;;;13.60;12.10;;;16.90;90.80;;;;;;5040979;28;20738;-66
2021/10/10 09:33:42;;;;;;;12.90;11.70;;;17.00;91.00;;;;;;5035758;28;20412;-67
2021/10/10 09:36:16;;;;;;;15.93;11.40;;;17.20;91.30;;;;;;5053478;28;20443;-66
2021/10/10 09:38:47;;;;;;;12.00;10.83;;;17.30;91.00;;;;;;5053040;28;20407;-66
2021/10/10 09:41:21;;;;;;;12.93;11.63;;;17.50;91.50;;;;;;5052213;28;20412;-66
2021/10/10 09:44:22;;;;;;;12.43;11.13;;;17.80;90.30;;;;;;5052460;28;20399;-67
2021/10/10 09:46:49;;;;;;;12.47;11.20;;;18.00;90.30;;;;;;5052837;28;20448;-67
2021/10/10 09:49:29;;;;;;;12.87;10.70;;;18.20;88.50;;;;;;5053637;28;20499;-67
2021/10/10 09:52:10;;;;;;;11.93;10.67;;;18.40;87.30;;;;;;5052725;28;20476;-67
2021/10/10 09:54:51;;;;;;;12.50;11.40;;;18.60;85.20;;;;;;5043934;28;20435;-70
2021/10/10 09:57:18;;;;;;;13.63;12.33;;;18.70;86.30;;;;;;5051392;28;20433;-69
2021/10/10 09:59:44;;;;;;;12.90;11.70;;;18.80;84.60;;;;;;5047477;28;20420;-66
2021/10/10 10:02:10;;;;;;;354.57;250.17;;;19.00;86.40;;;;;;5053111;28;20435;-66
2021/10/10 10:04:50;;;;;;;247.07;184.53;;;19.10;87.60;;;;;;5039230;28;20182;-70
2021/10/10 10:07:17;;;;;;;18.73;16.93;;;19.30;87.80;;;;;;5035128;28;20461;-65
2021/10/10 10:09:49;;;;;;;14.20;12.80;;;19.50;81.30;;;;;;5032567;28;20409;-66
2021/10/10 10:12:16;;;;;;;12.63;11.53;;;19.60;83.50;;;;;;5033115;28;20755;-66
2021/10/10 10:14:43;;;;;;;12.60;11.50;;;19.70;82.00;;;;;;5017405;28;20445;-66
2021/10/10 10:17:09;;;;;;;13.13;11.93;;;19.80;81.40;;;;;;5031282;28;20779;-66
2021/10/10 10:19:36;;;;;;;12.67;11.37;;;19.90;83.50;;;;;;5046627;28;20416;-66
2021/10/10 10:22:02;;;;;;;11.70;10.67;;;19.90;86.20;;;;;;5041748;28;20181;-66
2021/10/10 10:24:30;;;;;;;13.27;11.90;;;20.00;85.90;;;;;;5043628;28;20413;-66
2021/10/10 10:26:56;;;;;;;12.20;11.00;;;20.20;80.90;;;;;;5046041;28;21097;-68
2021/10/10 10:29:27;;;;;;;467.40;318.53;;;20.20;80.80;;;;;;5052601;28;20428;-65
2021/10/10 10:31:58;;;;;;;72.23;56.30;;;20.30;81.70;;;;;;5051441;28;20200;-67
2021/10/10 10:34:32;;;;;;;16.37;14.80;;;20.40;84.10;;;;;;5052571;28;20539;-65
2021/10/10 10:37:09;;;;;;;13.23;12.03;;;20.40;81.60;;;;;;5034172;28;20436;-65
2021/10/10 10:39:41;;;;;;;13.07;11.87;;;20.40;76.70;;;;;;5052277;28;20420;-65
2021/10/10 10:42:09;;;;;;;14.80;13.30;;;20.50;82.10;;;;;;5052351;28;20744;-65
2021/10/10 10:44:43;;;;;;;14.53;13.10;;;20.60;80.10;;;;;;5034817;28;20899;-65
2021/10/10 10:47:17;;;;;;;14.10;12.70;;;20.70;78.10;;;;;;5052724;28;20757;-67
2021/10/10 10:49:45;;;;;;;14.20;12.57;;;20.80;81.20;;;;;;5051852;28;20420;-65
2021/10/10 10:52:29;;;;;;;14.10;12.67;;;20.90;78.40;;;;;;5052375;28;20404;-65
2021/10/10 10:55:20;;;;;;;13.87;12.67;;;21.00;78.50;;;;;;5051498;28;20435;-65
2021/10/10 10:57:52;;;;;;;12.20;11.00;;;21.10;78.40;;;;;;5051557;28;20819;-65
2021/10/10 11:00:27;;;;;;;11.60;10.30;;;21.30;78.30;;;;;;5052410;28;20428;-65
2021/10/10 11:03:11;;;;;;;10.07;9.30;;;21.50;75.70;;;;;;5051465;28;20392;-65
2021/10/10 11:05:40;;;;;;;10.80;9.90;;;21.80;71.90;;;;;;5052549;28;20464;-65
2021/10/10 11:08:27;;;;;;;10.30;9.50;;;22.00;74.70;;;;;;5052328;28;20481;-65
2021/10/10 11:11:14;;;;;;;10.20;9.40;;;22.20;70.40;;;;;;5051369;28;20396;-65
2021/10/10 11:13:48;;;;;;;12.07;10.30;;;22.40;72.60;;;;;;5051556;28;20767;-67
2021/10/10 11:16:19;;;;;;;10.07;9.27;;;22.60;69.90;;;;;;5052348;28;20490;-65
2021/10/10 11:18:50;;;;;;;10.73;9.93;;;22.70;67.50;;;;;;5051113;28;20506;-66
2021/10/10 11:21:25;;;;;;;10.17;9.40;;;22.80;62.10;;;;;;5034417;28;20417;-65
2021/10/10 11:23:53;;;;;;;11.33;10.33;;;22.80;62.80;;;;;;5051652;28;20423;-65
2021/10/10 11:26:20;;;;;;;12.23;9.33;;;22.50;62.90;;;;;;5051960;28;20460;-65
2021/10/10 11:28:55;;;;;;;10.73;9.83;;;22.30;62.10;;;;;;5051255;28;20416;-66
2021/10/10 11:31:23;;;;;;;11.70;9.70;;;22.10;61.40;;;;;;5051685;28;20752;-66
2021/10/10 11:33:58;;;;;;;10.03;9.13;;;22.00;61.00;;;;;;5050676;28;21026;-67
2021/10/10 11:36:40;;;;;;;10.17;9.27;;;21.90;59.50;;;;;;5052025;28;20499;-67
2021/10/10 11:39:16;;;;;;;10.93;9.70;;;22.00;59.90;;;;;;5051091;28;20456;-65
2021/10/10 11:41:53;;;;;;;9.50;8.70;;;22.00;62.90;;;;;;5051476;28;20813;-66
2021/10/10 11:44:21;;;;;;;9.60;8.70;;;22.00;62.80;;;;;;5051610;28;20424;-65
2021/10/10 11:46:52;;;;;;;8.70;8.00;;;22.00;59.60;;;;;;5051212;28;20581;-65
2021/10/10 11:49:44;;;;;;;8.60;8.00;;;22.00;58.10;;;;;;5051872;28;20741;-65
2021/10/10 11:52:26;;;;;;;8.37;7.67;;;22.00;58.90;;;;;;5051572;28;20798;-65
2021/10/10 11:57:39;;;;;;;12.47;8.00;;;21.90;56.70;;;;;;5055327;28;20474;-65
2021/10/10 12:00:07;;;;;;;8.50;7.80;;;21.90;58.60;;;;;;5054470;28;20419;-65
2021/10/10 12:02:38;;;;;;;9.60;8.80;;;21.80;56.60;;;;;;5055023;28;20408;-65
2021/10/10 12:05:08;;;;;;;9.43;8.73;;;21.80;58.60;;;;;;5054165;28;20455;-65
2021/10/10 12:07:37;;;;;;;9.13;8.43;;;21.50;59.40;;;;;;5054837;28;20432;-65
2021/10/10 12:10:07;;;;;;;8.57;7.77;;;21.40;61.30;;;;;;5054411;28;21055;-65
2021/10/10 12:12:33;;;;;;;10.33;9.40;;;21.30;66.20;;;;;;5055242;28;20451;-65
2021/10/10 12:14:59;;;;;;;11.30;9.77;;;21.20;66.10;;;;;;5054601;28;20443;-65
2021/10/10 12:17:36;;;;;;;13.20;11.17;;;21.10;66.70;;;;;;5055168;28;20256;-65
2021/10/10 12:20:25;;;;;;;9.93;9.13;;;20.90;65.20;;;;;;5054017;28;20439;-65
2021/10/10 12:22:51;;;;;;;9.97;9.17;;;20.80;67.00;;;;;;5047323;28;20428;-66
2021/10/10 12:25:37;;;;;;;8.57;7.97;;;20.60;66.90;;;;;;5054774;28;20468;-67
2021/10/10 12:28:11;;;;;;;9.43;8.63;;;20.50;66.00;;;;;;5054470;28;20400;-66
2021/10/10 12:30:38;;;;;;;10.23;9.33;;;20.30;69.60;;;;;;5054663;28;20477;-66
2021/10/10 12:33:31;;;;;;;9.97;9.07;;;20.20;69.80;;;;;;5054023;28;20940;-67
2021/10/10 12:36:01;;;;;;;8.60;7.87;;;20.10;68.50;;;;;;5035982;28;20443;-67
2021/10/10 12:38:33;;;;;;;8.80;8.00;;;20.00;66.30;;;;;;5054937;28;20441;-67
2021/10/10 12:41:19;;;;;;;10.07;9.03;;;20.00;70.10;;;;;;5052737;28;20428;-65